createdAt,value
2023-01-07T00:01:15.464Z,101107.72
2023-01-07T00:03:44.200Z,101113.31
2023-01-07T00:06:14.903Z,101101.81
2023-01-07T00:08:44.871Z,101098.34
2023-01-07T00:11:16.309Z,101104.09
2023-01-07T00:13:46.005Z,101105.47
2023-01-07T00:16:17.202Z,101107.94
2023-01-07T00:18:45.517Z,101101.13
2023-01-07T00:21:15.953Z,101099.56
2023-01-07T00:23:45.009Z,101097.06
2023-01-07T00:26:14.729Z,101094.97
2023-01-07T00:28:46.253Z,101089.34
2023-01-07T00:31:16.347Z,101081.69
2023-01-07T00:33:51.799Z,101076.91
2023-01-07T00:36:20.154Z,101082.22
2023-01-07T00:38:48.359Z,101079.44
2023-01-07T00:41:16.027Z,101077.06
2023-01-07T00:43:45.028Z,101074.69
2023-01-07T00:46:14.649Z,101081.69
2023-01-07T00:48:42.673Z,101066.44
2023-01-07T00:51:11.896Z,101069.91
2023-01-07T00:53:39.914Z,101065.75
2023-01-07T00:56:08.007Z,101068.53
2023-01-07T00:58:35.706Z,101059.59
2023-01-07T01:01:05.337Z,101057.34
2023-01-07T01:03:34.629Z,101052.72
2023-01-07T01:06:03.759Z,101055.00
2023-01-07T01:08:31.586Z,101052.72
2023-01-07T01:11:04.901Z,101056.50
2023-01-07T01:13:32.770Z,101052.88
2023-01-07T01:16:00.780Z,101055.97
2023-01-07T01:18:29.983Z,101045.03
2023-01-07T01:20:57.631Z,101051.19
2023-01-07T01:23:25.301Z,101054.69
2023-01-07T01:25:53.057Z,101057.91
2023-01-07T01:28:20.697Z,101054.56
2023-01-07T01:30:55.794Z,101054.16
2023-01-07T01:33:23.420Z,101048.41
2023-01-07T01:35:52.440Z,101048.41
2023-01-07T01:38:20.163Z,101045.34
2023-01-07T01:40:47.865Z,101038.75
2023-01-07T01:43:33.721Z,101047.84
2023-01-07T01:46:04.413Z,101047.00
2023-01-07T01:48:36.199Z,101045.59
2023-01-07T01:51:05.945Z,101048.41
2023-01-07T01:53:36.585Z,101042.53
2023-01-07T01:56:08.437Z,101037.50
2023-01-07T01:58:39.522Z,101029.53
2023-01-07T02:01:07.423Z,101028.00
2023-01-07T02:03:37.560Z,101024.34
2023-01-07T02:06:10.968Z,101025.19
2023-01-07T02:08:38.858Z,101028.97
2023-01-07T02:11:19.299Z,101029.09
2023-01-07T02:14:01.328Z,101019.47
2023-01-07T02:16:36.655Z,101017.94
2023-01-07T02:19:29.374Z,101015.69
2023-01-07T02:22:06.690Z,101009.00
2023-01-07T02:25:02.505Z,101008.44
2023-01-07T02:28:02.434Z,101007.31
2023-01-07T02:30:48.895Z,101007.59
2023-01-07T02:33:27.583Z,100998.38
2023-01-07T02:36:33.974Z,100995.72
2023-01-07T02:39:14.443Z,100998.66
2023-01-07T02:41:49.820Z,100991.25
2023-01-07T02:44:26.780Z,100988.31
2023-01-07T02:47:02.213Z,100977.97
2023-01-07T02:49:31.376Z,100982.19
2023-01-07T02:52:17.555Z,100979.22
2023-01-07T02:54:46.924Z,100973.91
2023-01-07T02:57:43.157Z,100973.91
2023-01-07T03:00:19.382Z,100961.47
2023-01-07T03:02:59.483Z,100961.19
2023-01-07T03:05:42.690Z,100954.53
2023-01-07T03:08:26.913Z,100959.97
2023-01-07T03:11:00.628Z,100960.09
2023-01-07T03:13:36.089Z,100951.56
2023-01-07T03:16:06.763Z,100955.63
2023-01-07T03:18:38.975Z,100948.50
2023-01-07T03:21:13.663Z,100949.47
2023-01-07T03:23:45.402Z,100950.84
2023-01-07T03:26:15.144Z,100953.25
2023-01-07T03:28:43.894Z,100941.50
2023-01-07T03:31:15.356Z,100935.47
2023-01-07T03:33:50.395Z,100938.97
2023-01-07T03:36:24.061Z,100937.88
2023-01-07T03:38:53.424Z,100935.22
2023-01-07T03:41:35.091Z,100930.19
2023-01-07T03:44:02.824Z,100934.38
2023-01-07T03:46:30.567Z,100938.03
2023-01-07T03:48:58.283Z,100930.19
2023-01-07T03:51:27.284Z,100932.28
2023-01-07T03:53:54.991Z,100932.44
2023-01-07T03:56:22.858Z,100925.72
2023-01-07T03:58:50.544Z,100924.88
2023-01-07T04:01:18.338Z,100915.09
2023-01-07T04:03:46.121Z,100916.22
2023-01-07T04:06:13.756Z,100915.38
2023-01-07T04:08:42.762Z,100912.59
2023-01-07T04:11:10.461Z,100910.38
2023-01-07T04:13:38.110Z,100911.88
2023-01-07T04:16:06.468Z,100907.16
2023-01-07T04:18:34.237Z,100907.53
2023-01-07T04:21:01.960Z,100891.06
2023-01-07T04:23:29.949Z,100894.13
2023-01-07T04:25:58.980Z,100884.63
2023-01-07T04:28:26.986Z,100882.41
2023-01-07T04:30:54.850Z,100887.28
2023-01-07T04:33:22.714Z,100883.22
2023-01-07T04:35:50.363Z,100882.97
2023-01-07T04:38:18.257Z,100884.78
2023-01-07T04:40:46.115Z,100875.00
2023-01-07T04:43:15.187Z,100872.34
2023-01-07T04:45:43.075Z,100874.31
2023-01-07T04:48:10.754Z,100862.00
2023-01-07T04:50:38.450Z,100865.66
2023-01-07T04:53:06.192Z,100868.28
2023-01-07T04:55:33.969Z,100862.56
2023-01-07T04:58:01.756Z,100860.59
2023-01-07T05:00:30.750Z,100855.16
2023-01-07T05:02:58.585Z,100861.31
2023-01-07T05:05:26.249Z,100850.28
2023-01-07T05:07:53.969Z,100856.16
2023-01-07T05:10:21.750Z,100851.28
2023-01-07T05:12:49.459Z,100849.03
2023-01-07T05:15:17.145Z,100844.00
2023-01-07T05:17:46.194Z,100837.16
2023-01-07T05:20:15.369Z,100841.91
2023-01-07T05:22:43.043Z,100841.63
2023-01-07T05:25:11.243Z,100832.09
2023-01-07T05:27:38.890Z,100833.22
2023-01-07T05:30:07.680Z,100830.75
2023-01-07T05:32:35.383Z,100831.13
2023-01-07T05:35:04.855Z,100822.59
2023-01-07T05:37:32.514Z,100825.13
2023-01-07T05:40:00.200Z,100819.28
2023-01-07T05:42:27.897Z,100819.81
2023-01-07T05:44:55.616Z,100818.13
2023-01-07T05:47:23.297Z,100817.69
2023-01-07T05:49:51.037Z,100818.22
2023-01-07T05:52:20.077Z,100809.97
2023-01-07T05:54:47.767Z,100812.78
2023-01-07T05:57:15.442Z,100814.72
2023-01-07T05:59:43.132Z,100807.81
2023-01-07T06:02:10.848Z,100811.00
2023-01-07T06:04:38.494Z,100807.78
2023-01-07T06:07:06.217Z,100805.41
2023-01-07T06:09:35.452Z,100805.53
2023-01-07T06:12:03.063Z,100806.09
2023-01-07T06:14:30.688Z,100806.00
2023-01-07T06:16:58.432Z,100801.94
2023-01-07T06:19:26.479Z,100802.78
2023-01-07T06:21:54.209Z,100796.50
2023-01-07T06:24:21.953Z,100794.09
2023-01-07T06:26:51.014Z,100792.72
2023-01-07T06:29:18.757Z,100794.34
2023-01-07T06:31:46.441Z,100790.16
2023-01-07T06:34:14.107Z,100798.81
2023-01-07T06:36:41.827Z,100789.47
2023-01-07T06:39:09.843Z,100779.13
2023-01-07T06:41:37.480Z,100784.44
2023-01-07T06:44:06.832Z,100776.91
2023-01-07T06:46:34.588Z,100777.00
2023-01-07T06:49:02.625Z,100776.69
2023-01-07T06:51:30.288Z,100772.66
2023-01-07T06:53:58.498Z,100768.94
2023-01-07T06:56:26.215Z,100761.34
2023-01-07T06:58:54.026Z,100765.69
2023-01-07T07:01:23.307Z,100755.63
2023-01-07T07:03:51.123Z,100758.00
2023-01-07T07:06:18.810Z,100753.03
2023-01-07T07:08:46.492Z,100756.66
2023-01-07T07:11:14.149Z,100756.53
2023-01-07T07:13:41.822Z,100756.81
2023-01-07T07:16:09.774Z,100759.19
2023-01-07T07:18:38.860Z,100754.13
2023-01-07T07:21:06.905Z,100742.94
2023-01-07T07:23:34.625Z,100747.16
2023-01-07T07:26:02.293Z,100735.31
2023-01-07T07:28:29.973Z,100738.25
2023-01-07T07:30:58.190Z,100739.50
2023-01-07T07:33:25.907Z,100741.84
2023-01-07T07:35:55.964Z,100735.56
2023-01-07T07:38:23.695Z,100735.19
2023-01-07T07:40:51.419Z,100730.75
2023-01-07T07:43:19.175Z,100722.38
2023-01-07T07:45:47.078Z,100727.25
2023-01-07T07:48:16.312Z,100725.44
2023-01-07T07:50:44.063Z,100720.66
2023-01-07T07:53:14.035Z,100723.44
2023-01-07T07:55:41.692Z,100715.34
2023-01-07T07:58:09.424Z,100716.50
2023-01-07T08:00:37.229Z,100713.69
2023-01-07T08:03:05.634Z,100707.97
2023-01-07T08:05:33.660Z,100716.63
2023-01-07T08:08:01.394Z,100719.25
2023-01-07T08:10:30.684Z,100711.53
2023-01-07T08:12:58.315Z,100711.69
2023-01-07T08:15:26.273Z,100708.66
2023-01-07T08:18:00.641Z,100708.22
2023-01-07T08:20:28.838Z,100702.63
2023-01-07T08:22:59.507Z,100700.09
2023-01-07T08:25:27.302Z,100704.69
2023-01-07T08:27:57.879Z,100697.44
2023-01-07T08:30:26.420Z,100699.09
2023-01-07T08:32:54.262Z,100701.75
2023-01-07T08:35:22.440Z,100689.19
2023-01-07T08:37:50.695Z,100687.88
2023-01-07T08:40:18.423Z,100681.84
2023-01-07T08:42:46.128Z,100677.00
2023-01-07T08:45:15.466Z,100680.47
2023-01-07T08:47:47.485Z,100684.41
2023-01-07T08:50:15.252Z,100692.59
2023-01-07T08:52:42.861Z,100685.56
2023-01-07T08:55:10.760Z,100672.94
2023-01-07T08:57:38.546Z,100671.81
2023-01-07T09:00:07.707Z,100671.19
2023-01-07T09:02:36.776Z,100673.78
2023-01-07T09:05:05.951Z,100665.88
2023-01-07T09:07:33.633Z,100663.78
2023-01-07T09:10:01.399Z,100657.78
2023-01-07T09:12:29.065Z,100648.03
2023-01-07T09:14:56.779Z,100652.38
2023-01-07T09:17:24.552Z,100644.31
2023-01-07T09:19:53.661Z,100649.91
2023-01-07T09:22:21.425Z,100640.84
2023-01-07T09:24:49.186Z,100642.38
2023-01-07T09:27:17.092Z,100630.44
2023-01-07T09:29:44.817Z,100632.81
2023-01-07T09:32:12.723Z,100625.97
2023-01-07T09:34:40.602Z,100621.16
2023-01-07T09:37:09.620Z,100623.34
2023-01-07T09:39:37.258Z,100618.09
2023-01-07T09:42:12.665Z,100624.06
2023-01-07T09:44:55.014Z,100619.88
2023-01-07T09:47:27.573Z,100618.13
2023-01-07T09:49:59.277Z,100615.84
2023-01-07T09:52:33.085Z,100622.22
2023-01-07T09:55:06.752Z,100622.41
2023-01-07T09:57:34.548Z,100620.88
2023-01-07T10:00:03.584Z,100623.94
2023-01-07T10:02:41.972Z,100616.25
2023-01-07T10:05:22.329Z,100616.56
2023-01-07T10:08:29.901Z,100609.91
2023-01-07T10:10:54.004Z,100612.50
2023-01-07T10:13:44.037Z,100600.72
2023-01-07T10:16:21.355Z,100601.19
2023-01-07T10:18:59.919Z,100604.16
2023-01-07T10:21:34.575Z,100599.91
2023-01-07T10:24:10.587Z,100587.91
2023-01-07T10:26:42.300Z,100594.72
2023-01-07T10:29:15.514Z,100594.59
2023-01-07T10:31:44.729Z,100588.44
2023-01-07T10:34:16.738Z,100564.44
2023-01-07T10:36:58.839Z,100558.78
2023-01-07T10:39:36.248Z,100553.31
2023-01-07T10:42:10.383Z,100540.97
2023-01-07T10:45:21.439Z,100544.56
2023-01-07T10:48:00.638Z,100541.31
2023-01-07T10:50:49.615Z,100541.41
2023-01-07T10:53:29.095Z,100530.59
2023-01-07T10:56:08.593Z,100528.91
2023-01-07T10:58:40.652Z,100526.78
2023-01-07T11:01:11.311Z,100534.31
2023-01-07T11:03:40.176Z,100519.50
2023-01-07T11:06:12.736Z,100509.72
2023-01-07T11:08:42.778Z,100505.38
2023-01-07T11:11:16.637Z,100504.19
2023-01-07T11:13:51.323Z,100504.69
2023-01-07T11:16:24.747Z,100499.69
2023-01-07T11:18:58.508Z,100506.16
2023-01-07T11:21:43.207Z,100497.66
2023-01-07T11:24:32.688Z,100492.34
2023-01-07T11:27:05.383Z,100484.75
2023-01-07T11:29:38.897Z,100481.25
2023-01-07T11:32:18.580Z,100460.50
2023-01-07T11:34:52.634Z,100474.59
2023-01-07T11:37:33.782Z,100465.97
2023-01-07T11:40:03.199Z,100473.09
2023-01-07T11:42:41.150Z,100458.56
2023-01-07T11:45:14.821Z,100461.34
2023-01-07T11:47:47.706Z,100456.03
2023-01-07T11:50:27.452Z,100452.22
2023-01-07T11:53:00.823Z,100450.91
2023-01-07T11:55:29.279Z,100444.41
2023-01-07T11:58:30.153Z,100432.28
2023-01-07T12:01:03.332Z,100428.31
2023-01-07T12:03:31.265Z,100428.84
2023-01-07T12:06:01.854Z,100421.19
2023-01-07T12:08:35.303Z,100420.03
2023-01-07T12:11:08.895Z,100415.34
2023-01-07T12:13:42.281Z,100410.22
2023-01-07T12:16:11.587Z,100399.75
2023-01-07T12:19:14.825Z,100401.03
2023-01-07T12:21:58.525Z,100397.72
2023-01-07T12:24:43.831Z,100397.69
2023-01-07T12:27:22.669Z,100391.06
2023-01-07T12:30:03.486Z,100381.09
2023-01-07T12:32:45.837Z,100377.13
2023-01-07T12:35:19.131Z,100371.16
2023-01-07T12:37:52.931Z,100373.13
2023-01-07T12:40:32.467Z,100369.63
2023-01-07T12:43:11.441Z,100362.53
2023-01-07T12:45:46.153Z,100356.56
2023-01-07T12:48:22.458Z,100350.41
2023-01-07T12:50:54.028Z,100341.91
2023-01-07T12:53:30.221Z,100334.00
2023-01-07T12:56:01.396Z,100336.16
2023-01-07T12:58:40.916Z,100340.97
2023-01-07T13:01:20.083Z,100334.84
2023-01-07T13:03:55.846Z,100325.34
2023-01-07T13:06:36.499Z,100323.53
2023-01-07T13:09:13.325Z,100320.22
2023-01-07T13:12:01.993Z,100321.56
2023-01-07T13:14:34.289Z,100316.06
2023-01-07T13:17:16.242Z,100313.75
2023-01-07T13:19:44.046Z,100317.41
2023-01-07T13:22:20.393Z,100314.75
2023-01-07T13:25:00.954Z,100319.75
2023-01-07T13:27:38.239Z,100318.56
2023-01-07T13:30:20.391Z,100303.28
2023-01-07T13:33:00.524Z,100301.16
2023-01-07T13:35:44.188Z,100292.31
2023-01-07T13:38:23.285Z,100302.75
2023-01-07T13:41:04.863Z,100295.47
2023-01-07T13:43:53.525Z,100294.78
2023-01-07T13:46:26.050Z,100296.44
2023-01-07T13:48:55.971Z,100293.47
2023-01-07T13:51:30.079Z,100293.31
2023-01-07T13:53:58.527Z,100298.97
2023-01-07T13:56:43.944Z,100299.13
2023-01-07T13:59:32.718Z,100294.00
2023-01-07T14:02:20.068Z,100288.16
2023-01-07T14:05:04.509Z,100294.16
2023-01-07T14:07:32.685Z,100281.84
2023-01-07T14:10:00.379Z,100282.53
2023-01-07T14:13:06.220Z,100280.19
2023-01-07T14:16:07.804Z,100273.19
2023-01-07T14:19:05.132Z,100279.19
2023-01-07T14:21:52.855Z,100269.88
2023-01-07T14:24:34.758Z,100277.19
2023-01-07T14:27:16.572Z,100267.56
2023-01-07T14:29:47.434Z,100270.84
2023-01-07T14:32:29.157Z,100269.88
2023-01-07T14:35:03.450Z,100263.56
2023-01-07T14:37:37.677Z,100259.59
2023-01-07T14:40:49.764Z,100254.25
2023-01-07T14:43:48.604Z,100255.25
2023-01-07T14:46:45.710Z,100248.25
2023-01-07T14:49:38.354Z,100247.28
2023-01-07T14:52:15.103Z,100250.41
2023-01-07T14:55:14.262Z,100246.91
2023-01-07T14:57:56.163Z,100243.78
2023-01-07T15:00:53.371Z,100239.94
2023-01-07T15:03:50.941Z,100240.59
2023-01-07T15:06:29.942Z,100240.97
2023-01-07T15:09:22.086Z,100238.63
2023-01-07T15:12:11.742Z,100239.13
2023-01-07T15:15:03.752Z,100235.13
2023-01-07T15:17:33.255Z,100243.09
2023-01-07T15:20:05.352Z,100234.97
2023-01-07T15:22:56.537Z,100231.94
2023-01-07T15:25:41.848Z,100236.28
2023-01-07T15:28:16.538Z,100229.63
2023-01-07T15:30:55.955Z,100237.25
2023-01-07T15:33:53.449Z,100228.44
2023-01-07T15:36:21.613Z,100230.91
2023-01-07T15:38:52.891Z,100230.59
2023-01-07T15:41:27.768Z,100230.59
2023-01-07T15:43:58.036Z,100229.75
2023-01-07T15:46:27.379Z,100228.72
2023-01-07T15:49:16.069Z,100227.66
2023-01-07T15:51:45.501Z,100217.94
2023-01-07T15:54:28.601Z,100225.16
2023-01-07T15:57:00.447Z,100219.19
2023-01-07T15:59:32.568Z,100217.84
2023-01-07T16:02:06.941Z,100216.16
2023-01-07T16:04:38.298Z,100209.66
2023-01-07T16:07:06.036Z,100211.50
2023-01-07T16:09:34.393Z,100212.31
2023-01-07T16:12:02.163Z,100209.53
2023-01-07T16:14:38.111Z,100207.84
2023-01-07T16:17:14.228Z,100213.16
2023-01-07T16:19:42.574Z,100204.00
2023-01-07T16:22:16.188Z,100201.84
2023-01-07T16:24:53.350Z,100203.13
2023-01-07T16:27:24.951Z,100192.84
2023-01-07T16:29:57.898Z,100188.53
2023-01-07T16:32:26.699Z,100189.66
2023-01-07T16:35:00.428Z,100185.72
2023-01-07T16:37:29.361Z,100183.22
2023-01-07T16:39:57.558Z,100175.41
2023-01-07T16:42:27.511Z,100171.25
2023-01-07T16:45:02.142Z,100170.94
2023-01-07T16:47:31.410Z,100172.56
2023-01-07T16:50:00.355Z,100173.41
2023-01-07T16:52:33.011Z,100168.94
2023-01-07T16:55:01.196Z,100168.25
2023-01-07T16:57:38.886Z,100168.41
2023-01-07T17:00:23.961Z,100164.22
2023-01-07T17:02:57.346Z,100164.22
2023-01-07T17:05:29.111Z,100158.59
2023-01-07T17:07:59.260Z,100150.63
2023-01-07T17:10:29.287Z,100149.94
2023-01-07T17:12:59.568Z,100150.78
2023-01-07T17:15:36.098Z,100145.28
2023-01-07T17:18:29.056Z,100150.91
2023-01-07T17:20:58.884Z,100148.25
2023-01-07T17:23:34.122Z,100147.78
2023-01-07T17:26:04.438Z,100141.31
2023-01-07T17:28:34.200Z,100137.66
2023-01-07T17:31:03.702Z,100133.69
2023-01-07T17:33:31.420Z,100128.19
2023-01-07T17:35:59.121Z,100130.69
2023-01-07T17:38:26.826Z,100139.97
2023-01-07T18:06:59.647Z,100113.25
2023-01-07T18:09:27.314Z,100123.41
2023-01-07T18:12:12.668Z,100128.28
2023-01-07T18:14:40.321Z,100121.03
2023-01-07T18:17:08.359Z,100121.97
2023-01-07T18:19:36.147Z,100123.34
2023-01-07T18:22:05.235Z,100115.53
2023-01-07T18:24:33.023Z,100123.66
2023-01-07T18:27:00.800Z,100123.66
2023-01-07T18:29:28.488Z,100118.34
2023-01-07T18:31:56.192Z,100109.75
2023-01-07T18:34:24.023Z,100110.09
2023-01-07T18:36:51.749Z,100110.81
2023-01-07T18:39:21.155Z,100112.47
2023-01-07T18:41:50.229Z,100099.81
2023-01-07T18:44:19.868Z,100109.44
2023-01-07T18:46:47.727Z,100093.84
2023-01-07T18:49:15.931Z,100096.53
2023-01-07T18:51:44.018Z,100092.38
2023-01-07T18:54:11.782Z,100095.34
2023-01-07T18:56:41.036Z,100088.88
2023-01-07T18:59:08.869Z,100082.28
2023-01-07T19:01:36.751Z,100076.63
2023-01-07T19:04:06.816Z,100074.13
2023-01-07T19:06:34.615Z,100076.28
2023-01-07T19:09:02.428Z,100085.06
2023-01-07T19:11:31.473Z,100079.63
2023-01-07T19:14:00.595Z,100081.25
2023-01-07T19:16:28.734Z,100079.28
2023-01-07T19:18:56.567Z,100067.34
2023-01-07T19:21:26.313Z,100079.63
2023-01-07T19:23:54.140Z,100071.47
2023-01-07T19:26:22.081Z,100067.34
2023-01-07T19:28:49.804Z,100063.22
2023-01-07T19:31:18.832Z,100053.91
2023-01-07T19:33:46.575Z,100065.03
2023-01-07T19:36:17.034Z,100055.06
2023-01-07T19:38:47.310Z,100061.69
2023-01-07T19:41:16.467Z,100058.06
2023-01-07T19:43:45.819Z,100062.75
2023-01-07T19:46:15.869Z,100049.81
2023-01-07T19:48:48.047Z,100041.31
2023-01-07T19:51:15.865Z,100053.75
2023-01-07T19:53:43.695Z,100052.63
2023-01-07T19:56:13.523Z,100051.13
2023-01-07T19:58:41.885Z,100054.63
2023-01-07T20:01:12.253Z,100053.44
2023-01-07T20:03:40.319Z,100059.06
2023-01-07T20:06:11.451Z,100067.41
2023-01-07T20:08:40.089Z,100062.75
2023-01-07T20:11:08.227Z,100051.91
2023-01-07T20:13:38.114Z,100056.06
2023-01-07T20:16:06.935Z,100049.41
2023-01-07T20:18:40.685Z,100059.56
2023-01-07T20:21:17.518Z,100057.34
2023-01-07T20:23:45.856Z,100057.03
2023-01-07T20:26:15.947Z,100059.69
2023-01-07T20:28:44.520Z,100061.34
2023-01-07T20:31:14.792Z,100070.59
2023-01-07T20:33:45.301Z,100066.63
2023-01-07T20:36:16.301Z,100060.47
2023-01-07T20:38:45.149Z,100060.09
2023-01-07T20:41:20.898Z,100062.13
2023-01-07T20:43:52.169Z,100070.72
2023-01-07T20:46:21.952Z,100073.88
2023-01-07T20:48:49.988Z,100074.16
2023-01-07T20:51:19.779Z,100072.19
2023-01-07T20:53:48.384Z,100064.25
2023-01-07T20:56:18.584Z,100059.81
2023-01-07T20:58:46.756Z,100068.91
2023-01-07T21:01:17.002Z,100064.28
2023-01-07T21:03:45.635Z,100055.00
2023-01-07T21:06:15.045Z,100045.53
2023-01-07T21:08:44.652Z,100051.97
2023-01-07T21:11:14.617Z,100052.78
2023-01-07T21:13:43.079Z,100047.97
2023-01-07T21:16:11.435Z,100051.09
2023-01-07T21:18:39.438Z,100049.44
2023-01-07T21:21:10.968Z,100061.22
2023-01-07T21:23:39.149Z,100063.22
2023-01-07T21:26:10.061Z,100057.59
2023-01-07T21:28:37.844Z,100061.75
2023-01-07T21:31:09.141Z,100062.31
2023-01-07T21:33:37.811Z,100052.38
2023-01-07T21:36:09.797Z,100053.97
2023-01-07T21:38:37.641Z,100050.69
2023-01-07T21:41:12.430Z,100051.28
2023-01-07T21:43:40.413Z,100054.63
2023-01-07T21:46:09.175Z,100052.97
2023-01-07T21:48:38.958Z,100052.34
2023-01-07T21:51:08.706Z,100047.38
2023-01-07T21:53:37.281Z,100051.50
2023-01-07T21:56:06.649Z,100042.88
2023-01-07T21:58:35.940Z,100037.38
2023-01-07T22:01:04.559Z,100034.31
2023-01-07T22:03:32.897Z,100036.00
2023-01-07T22:06:02.140Z,100032.84
2023-01-07T22:08:30.212Z,100038.16
2023-01-07T22:10:57.951Z,100034.84
2023-01-07T22:13:25.669Z,100023.91
2023-01-07T22:15:55.937Z,100021.78
2023-01-07T22:18:23.768Z,100028.56
2023-01-07T22:20:55.979Z,100022.09
2023-01-07T22:23:24.181Z,100030.69
2023-01-07T22:25:51.939Z,100037.81
2023-01-07T22:28:23.014Z,100048.41
2023-01-07T22:30:55.386Z,100043.13
2023-01-07T22:33:23.545Z,100047.28
2023-01-07T22:35:52.262Z,100041.28
2023-01-07T22:38:23.874Z,100037.47
2023-01-07T22:40:51.919Z,100046.44
2023-01-07T22:43:23.900Z,100038.34
2023-01-07T22:45:56.644Z,100034.69
2023-01-07T22:48:27.317Z,100040.00
2023-01-07T22:50:58.864Z,100039.50
2023-01-07T22:53:26.593Z,100036.59
2023-01-07T22:55:54.884Z,100035.75
2023-01-07T22:58:22.931Z,100039.38
2023-01-07T23:01:12.820Z,100039.72
2023-01-07T23:03:41.537Z,100030.31
2023-01-07T23:06:10.628Z,100034.28
2023-01-07T23:08:38.417Z,100020.69
2023-01-07T23:11:07.157Z,100011.41
2023-01-07T23:13:35.219Z,100002.97
2023-01-07T23:16:06.389Z,99997.69
2023-01-07T23:18:34.968Z,99997.31
2023-01-07T23:21:05.259Z,99991.41
2023-01-07T23:23:33.213Z,99979.78
2023-01-07T23:26:00.865Z,99970.03
2023-01-07T23:28:29.037Z,99965.56
2023-01-07T23:31:02.167Z,99973.97
2023-01-07T23:33:31.994Z,99973.81
2023-01-07T23:36:04.355Z,99968.50
2023-01-07T23:38:32.637Z,99965.50
2023-01-07T23:41:02.530Z,99962.69
2023-01-07T23:43:30.683Z,99952.75
2023-01-07T23:45:59.227Z,99951.25
2023-01-07T23:48:28.092Z,99943.66
2023-01-07T23:50:57.815Z,99937.66
2023-01-07T23:53:26.380Z,99942.31
2023-01-07T23:55:56.008Z,99950.78
2023-01-07T23:58:25.900Z,99934.69
